TimeCST,TemperatureF,Dew PointF,Humidity,Sea Level PressureIn,VisibilityMPH,Wind Direction,Wind SpeedMPH,Gust SpeedMPH,PrecipitationIn,Events,Conditions,WindDirDegrees,DateUTC
12:13 AM,15.3,8.6,75,30.28,10.0,SSW,4.6,-,N/A,,Clear,210,2012-11-27 06:13:00
12:33 AM,14.9,8.8,77,30.28,10.0,SSW,4.6,-,N/A,,Clear,200,2012-11-27 06:33:00
12:53 AM,15.4,9.1,76,30.27,10.0,SSW,4.6,-,N/A,,Clear,210,2012-11-27 06:53:00
1:13 AM,16.3,9.1,73,30.26,10.0,SSW,3.5,-,N/A,,Clear,210,2012-11-27 07:13:00
1:33 AM,17.2,9.5,72,30.25,10.0,SSW,3.5,-,N/A,,Clear,200,2012-11-27 07:33:00
1:53 AM,16.3,9.5,74,30.25,10.0,South,3.5,-,N/A,,Scattered Clouds,180,2012-11-27 07:53:00
2:13 AM,16.5,9.5,74,30.25,10.0,South,4.6,-,N/A,,Scattered Clouds,180,2012-11-27 08:13:00
2:34 AM,17.4,10.0,73,30.24,10.0,SSW,5.8,-,N/A,,Scattered Clouds,200,2012-11-27 08:34:00
2:53 AM,17.6,9.9,72,30.23,10.0,SSW,5.8,-,N/A,,Scattered Clouds,200,2012-11-27 08:53:00
3:13 AM,18.0,10.4,72,30.23,10.0,South,4.6,-,N/A,,Scattered Clouds,180,2012-11-27 09:13:00
3:53 AM,18.5,10.4,71,30.21,10.0,SSW,5.8,-,N/A,,Scattered Clouds,200,2012-11-27 09:53:00
4:13 AM,18.5,10.4,71,30.21,10.0,SSW,5.8,-,N/A,,Scattered Clouds,210,2012-11-27 10:13:00
4:33 AM,18.1,10.4,72,30.20,10.0,South,4.6,-,N/A,,Scattered Clouds,190,2012-11-27 10:33:00
4:53 AM,17.6,10.0,72,30.19,10.0,South,5.8,-,N/A,,Clear,180,2012-11-27 10:53:00
5:14 AM,17.6,9.9,72,30.19,10.0,SSW,6.9,-,N/A,,Clear,200,2012-11-27 11:14:00
6:13 AM,16.7,10.2,76,30.16,10.0,South,8.1,-,N/A,,Clear,170,2012-11-27 12:13:00
6:34 AM,16.7,10.4,76,30.16,10.0,South,5.8,-,N/A,,Clear,180,2012-11-27 12:34:00
6:53 AM,16.9,10.4,76,30.16,10.0,South,4.6,-,N/A,,Clear,180,2012-11-27 12:53:00
7:13 AM,16.7,10.6,77,30.15,10.0,South,5.8,-,N/A,,Clear,180,2012-11-27 13:13:00
7:34 AM,17.1,11.1,77,30.14,10.0,SSW,5.8,-,N/A,,Clear,200,2012-11-27 13:34:00
7:53 AM,18.3,12.0,76,30.14,10.0,SSW,5.8,-,N/A,,Scattered Clouds,200,2012-11-27 13:53:00
8:13 AM,19.2,12.6,75,30.13,10.0,SSW,9.2,-,N/A,,Overcast,200,2012-11-27 14:13:00
8:33 AM,19.9,13.1,75,30.13,10.0,South,6.9,-,N/A,,Overcast,190,2012-11-27 14:33:00
8:53 AM,20.5,13.8,75,30.13,10.0,SSW,5.8,-,N/A,,Overcast,210,2012-11-27 14:53:00
9:13 AM,21.7,14.9,75,30.14,10.0,SW,5.8,-,N/A,,Overcast,230,2012-11-27 15:13:00
9:33 AM,22.8,15.8,74,30.13,10.0,SSW,8.1,-,N/A,,Overcast,210,2012-11-27 15:33:00
9:53 AM,24.6,17.6,75,30.13,10.0,SSW,6.9,-,N/A,,Overcast,210,2012-11-27 15:53:00
10:14 AM,27.3,19.2,72,30.13,10.0,SSW,6.9,-,N/A,,Overcast,200,2012-11-27 16:14:00
10:33 AM,30.2,20.3,67,30.13,10.0,South,8.1,-,N/A,,Overcast,190,2012-11-27 16:33:00
10:53 AM,31.1,20.8,66,30.11,10.0,SW,8.1,-,N/A,,Mostly Cloudy,230,2012-11-27 16:53:00
11:13 AM,32.0,21.0,64,30.11,10.0,SW,10.4,-,N/A,,Clear,230,2012-11-27 17:13:00
11:33 AM,32.7,21.6,64,30.10,10.0,WSW,11.5,-,N/A,,Clear,240,2012-11-27 17:33:00
11:53 AM,33.4,22.1,63,30.09,10.0,SW,9.2,-,N/A,,Clear,220,2012-11-27 17:53:00
12:13 PM,34.3,22.5,62,30.08,10.0,WSW,10.4,-,N/A,,Clear,240,2012-11-27 18:13:00
12:33 PM,35.1,22.6,61,30.07,10.0,WSW,6.9,-,N/A,,Clear,240,2012-11-27 18:33:00
12:53 PM,35.6,23.0,60,30.07,10.0,WSW,11.5,-,N/A,,Clear,240,2012-11-27 18:53:00
1:13 PM,35.8,23.0,60,30.06,10.0,WSW,8.1,-,N/A,,Clear,240,2012-11-27 19:13:00
1:34 PM,36.5,23.5,59,30.06,10.0,West,8.1,-,N/A,,Clear,260,2012-11-27 19:34:00
1:53 PM,36.1,23.5,60,30.07,10.0,West,9.2,-,N/A,,Clear,270,2012-11-27 19:53:00
2:13 PM,36.5,23.7,60,30.07,10.0,West,10.4,-,N/A,,Clear,280,2012-11-27 20:13:00
2:34 PM,36.5,23.9,60,30.07,10.0,WNW,8.1,-,N/A,,Clear,290,2012-11-27 20:34:00
2:53 PM,36.0,23.5,61,30.08,10.0,WNW,8.1,-,N/A,,Clear,290,2012-11-27 20:53:00
3:13 PM,35.4,23.4,62,30.08,10.0,WNW,10.4,-,N/A,,Clear,290,2012-11-27 21:13:00
3:33 PM,34.7,23.4,63,30.09,10.0,WNW,6.9,-,N/A,,Clear,300,2012-11-27 21:33:00
3:53 PM,33.8,23.2,65,30.10,10.0,WNW,6.9,-,N/A,,Clear,290,2012-11-27 21:53:00
4:14 PM,32.9,23.0,67,30.10,10.0,NW,5.8,-,N/A,,Clear,310,2012-11-27 22:14:00
4:34 PM,32.0,23.0,69,30.11,10.0,NW,4.6,-,N/A,,Clear,310,2012-11-27 22:34:00
4:53 PM,30.6,22.5,72,30.12,10.0,WNW,3.5,-,N/A,,Clear,290,2012-11-27 22:53:00
5:13 PM,29.1,22.1,75,30.13,10.0,NW,3.5,-,N/A,,Clear,310,2012-11-27 23:13:00
6:13 PM,26.4,20.8,79,30.15,10.0,WNW,3.5,-,N/A,,Clear,290,2012-11-28 00:13:00
6:33 PM,21.9,18.1,85,30.16,10.0,West,3.5,-,N/A,,Clear,280,2012-11-28 00:33:00
6:53 PM,21.6,18.1,87,30.16,10.0,Calm,Calm,-,N/A,,Clear,0,2012-11-28 00:53:00
7:13 PM,21.4,18.3,88,30.17,10.0,Calm,Calm,-,N/A,,Clear,0,2012-11-28 01:13:00
7:33 PM,20.1,17.6,90,30.18,10.0,Calm,Calm,-,N/A,,Clear,0,2012-11-28 01:33:00
7:53 PM,21.4,18.9,90,30.18,10.0,NW,5.8,-,N/A,,Clear,310,2012-11-28 01:53:00
8:13 PM,23.5,19.9,86,30.19,10.0,WNW,3.5,-,N/A,,Clear,300,2012-11-28 02:13:00
8:33 PM,22.8,19.4,87,30.19,10.0,NW,6.9,-,N/A,,Clear,310,2012-11-28 02:33:00
8:53 PM,23.2,19.9,87,30.20,10.0,WNW,4.6,-,N/A,,Mostly Cloudy,300,2012-11-28 02:53:00
9:13 PM,24.4,20.8,86,30.21,10.0,WNW,3.5,-,N/A,,Mostly Cloudy,290,2012-11-28 03:13:00
9:34 PM,24.6,20.8,86,30.22,10.0,NW,6.9,-,N/A,,Overcast,310,2012-11-28 03:34:00
9:54 PM,25.7,21.0,82,30.22,10.0,NW,11.5,16.1,N/A,,Overcast,310,2012-11-28 03:54:00
10:14 PM,25.5,20.8,82,30.23,10.0,NW,11.5,-,N/A,,Overcast,320,2012-11-28 04:14:00
10:33 PM,25.7,20.8,82,30.24,10.0,WNW,8.1,-,N/A,,Overcast,300,2012-11-28 04:33:00
10:53 PM,24.8,20.1,82,30.24,10.0,NW,8.1,-,N/A,,Overcast,310,2012-11-28 04:53:00
11:14 PM,25.2,20.3,82,30.24,10.0,NW,6.9,-,N/A,,Overcast,320,2012-11-28 05:14:00
11:53 PM,25.7,20.5,81,30.25,10.0,NW,5.8,-,N/A,,Overcast,320,2012-11-28 05:53:00